Time;durP1;ratioP1;P1;durP2;ratioP2;P2;SDS_P1;SDS_P2;PMS_P1;PMS_P2;Temp;Humidity;BMP_temperature;BMP_pressure;BME280_temperature;BME280_humidity;BME280_pressure;Samples;Min_cycle;Max_cycle;Signal;HPM_P1;HPM_P2
2023/09/17 03:33:36;;;;;;;5.60;4.50;;;17.40;99.90;;;;;;5016448;22;20504;-67
2023/09/17 03:36:04;;;;;;;4.47;4.07;;;17.50;99.90;;;;;;4993793;28;20481;-67
2023/09/17 03:38:30;;;;;;;4.53;3.60;;;17.50;99.90;;;;;;4993485;28;20549;-66
2023/09/17 03:40:59;;;;;;;4.23;3.83;;;17.50;99.90;;;;;;5010507;28;20476;-66
2023/09/17 03:43:27;;;;;;;4.37;3.97;;;17.50;99.90;;;;;;5011679;28;20479;-67
2023/09/17 03:45:53;;;;;;;4.33;3.93;;;17.50;99.90;;;;;;5011319;28;20456;-66
2023/09/17 03:48:20;;;;;;;4.20;3.80;;;17.50;99.90;;;;;;4999579;28;20948;-67
2023/09/17 03:50:49;;;;;;;5.17;4.07;;;17.60;99.90;;;;;;4992434;28;20496;-66
2023/09/17 03:53:16;;;;;;;5.10;4.60;;;17.60;99.90;;;;;;4992442;28;20470;-67
2023/09/17 03:55:44;;;;;;;3.20;2.90;;;17.60;99.90;;;;;;4992915;28;20469;-67
2023/09/17 03:58:11;;;;;;;5.00;4.50;;;17.60;99.90;;;;;;4993098;28;20893;-67
2023/09/17 04:00:38;;;;;;;6.07;4.77;;;17.60;99.90;;;;;;4992934;28;20481;-67
2023/09/17 04:03:08;;;;;;;4.20;3.70;;;17.60;99.90;;;;;;4981687;28;21614;-66
2023/09/17 04:05:35;;;;;;;4.50;4.10;;;17.60;99.90;;;;;;4973561;28;20971;-67
2023/09/17 04:08:03;;;;;;;4.50;4.10;;;17.60;99.90;;;;;;4973227;28;20490;-67
2023/09/17 04:10:30;;;;;;;4.93;4.07;;;17.60;99.90;;;;;;4973661;28;20493;-66
2023/09/17 04:12:57;;;;;;;4.60;3.93;;;17.50;99.90;;;;;;4972876;28;20473;-66
2023/09/17 04:15:24;;;;;;;4.83;4.13;;;17.50;99.90;;;;;;4973805;28;20930;-67
2023/09/17 04:17:51;;;;;;;4.87;4.40;;;17.50;99.90;;;;;;4973795;28;20639;-67
2023/09/17 04:20:19;;;;;;;4.97;4.53;;;17.40;99.90;;;;;;4973689;28;20492;-67
2023/09/17 04:22:47;;;;;;;4.70;4.20;;;17.40;99.90;;;;;;4973142;28;20466;-66
2023/09/17 04:25:16;;;;;;;5.17;4.67;;;17.30;99.90;;;;;;4973674;28;20502;-67
2023/09/17 04:27:44;;;;;;;5.50;4.00;;;17.30;99.90;;;;;;4972876;28;20487;-66
2023/09/17 04:30:13;;;;;;;5.17;4.57;;;17.30;99.90;;;;;;4973675;28;20462;-66
2023/09/17 04:32:41;;;;;;;3.87;3.53;;;17.30;99.90;;;;;;4973112;28;20471;-66
2023/09/17 04:35:09;;;;;;;4.33;3.93;;;17.20;99.90;;;;;;4973811;28;20473;-66
2023/09/17 04:37:38;;;;;;;4.10;3.70;;;17.20;99.90;;;;;;4973728;28;20553;-66
2023/09/17 04:40:08;;;;;;;4.50;4.10;;;17.10;99.90;;;;;;4973893;28;20843;-66
2023/09/17 04:42:36;;;;;;;4.40;4.00;;;17.10;99.90;;;;;;4973344;28;20493;-66
2023/09/17 04:45:05;;;;;;;4.90;4.40;;;17.10;99.90;;;;;;4974085;28;20473;-66
2023/09/17 04:47:33;;;;;;;5.10;4.60;;;17.00;99.90;;;;;;4973773;28;21045;-67
2023/09/17 04:50:00;;;;;;;6.47;4.80;;;17.00;99.90;;;;;;4974200;28;20462;-67
2023/09/17 04:52:27;;;;;;;5.50;4.53;;;17.00;99.90;;;;;;4973353;28;20485;-66
2023/09/17 04:54:54;;;;;;;4.73;4.27;;;16.90;99.90;;;;;;4974148;28;20469;-67
2023/09/17 04:57:20;;;;;;;4.67;4.17;;;16.90;99.90;;;;;;4973967;28;20461;-67
2023/09/17 04:59:49;;;;;;;4.73;4.10;;;16.90;99.90;;;;;;4974034;28;20553;-67
2023/09/17 05:02:16;;;;;;;4.63;4.20;;;16.90;99.90;;;;;;4982479;28;21020;-67
2023/09/17 05:04:43;;;;;;;4.60;4.20;;;16.90;99.90;;;;;;4974954;28;20474;-67
2023/09/17 05:07:09;;;;;;;5.67;4.53;;;16.90;99.90;;;;;;4976963;28;20499;-67
2023/09/17 05:09:37;;;;;;;5.57;5.07;;;16.90;99.90;;;;;;4975819;28;20977;-67
2023/09/17 05:12:05;;;;;;;4.90;3.80;;;16.90;99.90;;;;;;4982582;28;20567;-67
2023/09/17 05:14:31;;;;;;;4.33;3.93;;;16.80;99.90;;;;;;4974113;28;20461;-67
2023/09/17 05:17:00;;;;;;;4.73;4.13;;;16.80;99.90;;;;;;4975058;28;20462;-67
2023/09/17 05:19:26;;;;;;;4.70;4.30;;;16.90;99.90;;;;;;4974472;28;20466;-67
2023/09/17 05:21:53;;;;;;;4.67;4.27;;;16.80;99.90;;;;;;4975040;28;20493;-66
2023/09/17 05:24:20;;;;;;;5.17;4.67;;;16.80;99.90;;;;;;4973862;28;20470;-66
2023/09/17 05:26:47;;;;;;;6.03;4.70;;;16.90;99.90;;;;;;4974381;28;21036;-66
2023/09/17 05:29:16;;;;;;;4.93;4.17;;;16.90;99.90;;;;;;4974700;28;20471;-66
2023/09/17 05:31:43;;;;;;;4.50;4.10;;;16.90;99.90;;;;;;4973950;28;20497;-66
2023/09/17 05:34:11;;;;;;;5.03;4.53;;;16.90;99.90;;;;;;4974771;28;20465;-66
2023/09/17 05:36:38;;;;;;;4.80;4.30;;;16.90;99.90;;;;;;4974332;28;20959;-66
2023/09/17 05:39:06;;;;;;;5.30;4.30;;;17.00;99.90;;;;;;4977178;28;20470;-66
2023/09/17 05:41:33;;;;;;;4.43;4.03;;;17.00;99.90;;;;;;4978184;28;20558;-66
2023/09/17 05:44:00;;;;;;;4.70;4.30;;;17.00;99.90;;;;;;4974288;28;20552;-66
2023/09/17 05:46:27;;;;;;;4.77;4.30;;;17.10;99.90;;;;;;4974859;28;20489;-66
2023/09/17 05:48:54;;;;;;;4.47;4.07;;;17.10;99.90;;;;;;4976085;28;20466;-66
2023/09/17 05:51:22;;;;;;;5.03;4.33;;;17.10;99.90;;;;;;4975180;28;20581;-66
2023/09/17 05:53:49;;;;;;;5.53;4.30;;;17.20;99.90;;;;;;4975362;28;20462;-66
2023/09/17 05:56:16;;;;;;;5.17;4.77;;;17.30;99.90;;;;;;4975560;28;20471;-66
2023/09/17 05:58:43;;;;;;;4.77;4.13;;;17.30;99.90;;;;;;4975069;28;20478;-66
2023/09/17 06:01:10;;;;;;;4.30;3.90;;;17.40;99.90;;;;;;4975755;28;20486;-66
2023/09/17 06:03:37;;;;;;;4.83;4.40;;;17.50;99.90;;;;;;4976603;28;20498;-66
2023/09/17 06:06:04;;;;;;;5.43;4.30;;;17.50;99.90;;;;;;4976182;28;20482;-66
2023/09/17 06:08:32;;;;;;;6.00;4.77;;;17.60;99.90;;;;;;4975189;28;20576;-66
2023/09/17 06:10:59;;;;;;;5.20;4.70;;;17.70;99.90;;;;;;4976321;28;20549;-66
2023/09/17 06:13:26;;;;;;;4.87;4.47;;;17.80;99.90;;;;;;4974299;28;20466;-66
2023/09/17 06:15:53;;;;;;;6.07;4.80;;;17.90;99.90;;;;;;4975842;28;20502;-66
2023/09/17 06:18:19;;;;;;;4.10;3.70;;;17.90;99.90;;;;;;4974849;28;20467;-66
2023/09/17 06:20:47;;;;;;;5.37;4.40;;;18.00;99.90;;;;;;4975393;28;20513;-66
2023/09/17 06:23:13;;;;;;;5.00;4.50;;;18.10;99.90;;;;;;4981949;28;20473;-66
2023/09/17 06:25:41;;;;;;;4.80;4.30;;;18.20;99.90;;;;;;4975268;28;20467;-66
2023/09/17 06:28:08;;;;;;;5.43;4.87;;;18.20;99.90;;;;;;4976321;28;20487;-66
2023/09/17 06:30:35;;;;;;;5.93;4.47;;;18.30;99.90;;;;;;4975149;28;20975;-66
2023/09/17 06:33:03;;;;;;;5.20;4.70;;;18.40;99.90;;;;;;4975906;28;20477;-66
2023/09/17 06:35:30;;;;;;;5.70;4.90;;;18.50;99.90;;;;;;4974930;28;20468;-66
2023/09/17 06:37:57;;;;;;;4.90;4.33;;;18.50;99.90;;;;;;4976532;28;21050;-66
2023/09/17 06:40:24;;;;;;;4.93;4.43;;;18.60;99.90;;;;;;4974886;28;20467;-66
2023/09/17 06:42:52;;;;;;;4.40;4.00;;;18.70;99.90;;;;;;4975308;28;20467;-66
2023/09/17 06:45:19;;;;;;;4.80;4.30;;;18.80;99.90;;;;;;4975431;28;20855;-66
2023/09/17 06:47:47;;;;;;;4.60;4.17;;;18.80;99.90;;;;;;4976056;28;20511;-66
2023/09/17 06:50:14;;;;;;;4.60;4.20;;;18.90;99.90;;;;;;4977049;28;20978;-66
2023/09/17 06:52:41;;;;;;;4.47;4.07;;;18.90;99.90;;;;;;4976864;28;20474;-66
2023/09/17 06:55:08;;;;;;;4.97;4.07;;;19.00;99.90;;;;;;4980399;28;20473;-66
2023/09/17 06:57:34;;;;;;;4.07;3.77;;;19.10;99.90;;;;;;4978759;28;20578;-66
2023/09/17 07:00:03;;;;;;;4.10;3.53;;;19.20;99.90;;;;;;4980533;28;20463;-67
2023/09/17 07:02:30;;;;;;;6.33;4.13;;;19.30;99.90;;;;;;4978000;28;20479;-66
2023/09/17 07:05:00;;;;;;;4.00;3.47;;;19.40;99.90;;;;;;4980274;28;20466;-66
2023/09/17 07:07:26;;;;;;;3.20;2.90;;;19.40;99.90;;;;;;4987934;28;21069;-66
2023/09/17 07:09:53;;;;;;;3.67;3.20;;;19.60;99.90;;;;;;4979879;28;20478;-66
2023/09/17 07:12:20;;;;;;;3.97;3.40;;;19.70;99.90;;;;;;4978995;28;20483;-66
2023/09/17 07:14:47;;;;;;;4.30;3.57;;;19.90;99.90;;;;;;4978752;28;20462;-66
2023/09/17 07:17:16;;;;;;;4.73;3.53;;;20.00;99.90;;;;;;4980458;28;20944;-65
2023/09/17 07:19:43;;;;;;;3.30;3.00;;;20.20;99.90;;;;;;4979111;28;20464;-65
2023/09/17 07:22:14;;;;;;;3.63;3.33;;;20.30;99.90;;;;;;4980855;28;20486;-66
2023/09/17 07:24:41;;;;;;;3.87;3.00;;;20.40;99.90;;;;;;4978757;28;20469;-65
2023/09/17 07:27:08;;;;;;;3.30;3.00;;;20.50;99.90;;;;;;4981112;28;20991;-66
2023/09/17 07:29:35;;;;;;;3.10;2.80;;;20.60;99.90;;;;;;4978889;28;20474;-66
2023/09/17 07:32:01;;;;;;;3.20;2.80;;;20.70;99.90;;;;;;4980970;28;20999;-66
2023/09/17 07:34:30;;;;;;;4.90;3.67;;;20.70;99.90;;;;;;4978536;28;20471;-65
2023/09/17 07:36:59;;;;;;;2.47;2.10;;;20.90;99.90;;;;;;4980735;28;20471;-66
2023/09/17 07:39:26;;;;;;;3.20;2.90;;;20.90;99.90;;;;;;4979201;28;20824;-66
2023/09/17 07:41:53;;;;;;;3.27;2.83;;;20.90;99.90;;;;;;4980022;28;20889;-66
2023/09/17 07:44:20;;;;;;;4.40;2.90;;;20.90;99.90;;;;;;4979743;28;20464;-66
2023/09/17 07:46:47;;;;;;;4.23;3.20;;;20.90;99.90;;;;;;4979442;28;20553;-66
2023/09/17 07:49:13;;;;;;;3.40;2.93;;;21.00;99.90;;;;;;4981039;28;21237;-66
2023/09/17 07:51:41;;;;;;;3.50;3.20;;;21.20;99.90;;;;;;4979204;28;20495;-66
2023/09/17 07:54:08;;;;;;;2.90;2.70;;;21.40;99.90;;;;;;4981118;28;20852;-66
2023/09/17 07:56:35;;;;;;;4.53;3.10;;;21.50;99.90;;;;;;4979106;28;20466;-66
2023/09/17 07:59:02;;;;;;;3.17;2.87;;;21.60;99.90;;;;;;4981306;28;20527;-66
2023/09/17 08:01:28;;;;;;;3.30;3.00;;;21.70;99.90;;;;;;4978763;28;20479;-66
2023/09/17 08:03:56;;;;;;;3.60;3.10;;;21.80;99.90;;;;;;4978812;28;20834;-67
2023/09/17 08:06:25;;;;;;;7.50;3.03;;;21.90;99.90;;;;;;4980246;28;20268;-67
2023/09/17 08:08:53;;;;;;;2.60;2.40;;;22.10;99.90;;;;;;4980219;28;20534;-67
2023/09/17 08:11:21;;;;;;;3.37;2.77;;;22.20;99.90;;;;;;4980667;28;20862;-67
2023/09/17 08:13:48;;;;;;;2.93;2.73;;;22.40;99.90;;;;;;4979169;28;20510;-67
2023/09/17 08:16:16;;;;;;;2.80;2.60;;;22.60;99.90;;;;;;4981472;28;20466;-67
2023/09/17 08:18:43;;;;;;;3.43;2.90;;;22.80;99.90;;;;;;4979498;28;20467;-67
2023/09/17 08:21:11;;;;;;;3.30;2.27;;;22.90;99.90;;;;;;4982130;28;20485;-67
2023/09/17 08:23:38;;;;;;;4.60;2.80;;;23.00;99.90;;;;;;4978982;28;20514;-67
2023/09/17 08:26:07;;;;;;;3.00;2.67;;;23.20;99.90;;;;;;4981873;28;20464;-67
2023/09/17 08:28:34;;;;;;;3.30;3.00;;;23.40;99.90;;;;;;4979130;28;20545;-67
2023/09/17 08:31:02;;;;;;;4.97;2.83;;;23.50;99.90;;;;;;4981466;28;20530;-67
2023/09/17 08:33:28;;;;;;;3.23;2.63;;;23.50;99.90;;;;;;4979422;28;20509;-67
2023/09/17 08:35:55;;;;;;;3.13;2.60;;;23.60;99.90;;;;;;4980848;28;20467;-67
2023/09/17 08:38:22;;;;;;;3.00;2.53;;;23.60;99.90;;;;;;4980917;28;20505;-67
2023/09/17 08:40:49;;;;;;;2.40;2.20;;;23.60;99.90;;;;;;4979825;28;20482;-67
2023/09/17 08:43:18;;;;;;;2.30;2.10;;;23.90;99.90;;;;;;4981510;28;20473;-67
2023/09/17 08:45:45;;;;;;;2.50;2.30;;;24.10;99.90;;;;;;4979679;28;20463;-67
2023/09/17 08:48:13;;;;;;;3.00;2.80;;;24.30;99.90;;;;;;4979287;28;20482;-67
2023/09/17 08:50:40;;;;;;;3.30;3.00;;;24.40;99.90;;;;;;4979575;28;20542;-67
2023/09/17 08:53:10;;;;;;;3.10;2.77;;;24.50;99.90;;;;;;4982035;28;20470;-67
2023/09/17 08:55:37;;;;;;;3.13;2.50;;;24.60;99.90;;;;;;4979722;28;20455;-67
2023/09/17 08:58:11;;;;;;;3.13;2.40;;;24.70;99.90;;;;;;4982086;28;20455;-67
2023/09/17 09:00:42;;;;;;;3.70;2.40;;;24.80;99.90;;;;;;4979692;28;20490;-67
2023/09/17 09:03:12;;;;;;;4.73;2.60;;;24.90;99.90;;;;;;4982174;28;20525;-67
2023/09/17 09:05:39;;;;;;;3.03;2.60;;;25.10;99.90;;;;;;4991357;28;20979;-67
2023/09/17 09:08:07;;;;;;;2.63;2.40;;;25.20;99.90;;;;;;4992688;28;20493;-67
2023/09/17 09:10:34;;;;;;;4.50;2.70;;;25.40;99.90;;;;;;4988076;28;20498;-67
2023/09/17 09:13:03;;;;;;;2.80;2.20;;;25.60;99.90;;;;;;4990819;28;20463;-67
2023/09/17 09:15:30;;;;;;;3.03;2.17;;;25.70;99.90;;;;;;4989980;28;20463;-67
2023/09/17 09:17:58;;;;;;;3.00;2.13;;;25.70;99.90;;;;;;4981569;28;20459;-67
2023/09/17 09:20:26;;;;;;;5.43;2.83;;;25.70;99.90;;;;;;4981421;28;20462;-67
2023/09/17 09:22:53;;;;;;;2.80;2.50;;;25.80;99.90;;;;;;4980438;28;20474;-67
2023/09/17 09:25:20;;;;;;;2.67;2.40;;;25.90;99.90;;;;;;4982139;28;20489;-67
2023/09/17 09:27:46;;;;;;;2.37;2.17;;;26.00;99.90;;;;;;4978421;28;20482;-67
2023/09/17 09:30:15;;;;;;;2.67;2.30;;;26.20;99.90;;;;;;4983295;28;20462;-67
2023/09/17 09:32:43;;;;;;;2.90;2.30;;;26.30;99.90;;;;;;4979416;28;20470;-67
2023/09/17 09:35:11;;;;;;;3.40;2.63;;;26.50;99.90;;;;;;4983627;28;20462;-67
2023/09/17 09:37:39;;;;;;;4.10;2.70;;;26.60;99.90;;;;;;4980298;28;20458;-67
2023/09/17 09:40:07;;;;;;;3.40;2.77;;;26.70;99.90;;;;;;4982998;28;20463;-67
2023/09/17 09:42:34;;;;;;;4.23;2.50;;;26.80;99.90;;;;;;4980359;28;20485;-67
2023/09/17 09:45:00;;;;;;;4.13;2.20;;;26.90;99.90;;;;;;4982375;28;20463;-67
2023/09/17 09:47:27;;;;;;;3.40;2.37;;;27.00;99.90;;;;;;4982300;28;20462;-67
2023/09/17 09:49:54;;;;;;;3.20;2.17;;;27.10;99.90;;;;;;4981608;28;20491;-67
2023/09/17 09:52:24;;;;;;;4.53;2.07;;;27.10;99.90;;;;;;4982853;28;20485;-67
2023/09/17 09:54:50;;;;;;;2.67;2.40;;;27.10;99.90;;;;;;4981001;28;20490;-67
2023/09/17 09:57:19;;;;;;;3.90;2.10;;;27.10;99.90;;;;;;4983900;28;20462;-67
2023/09/17 09:59:49;;;;;;;2.60;2.17;;;27.20;99.90;;;;;;4992906;28;20452;-67
2023/09/17 10:02:20;;;;;;;4.10;2.37;;;27.20;99.90;;;;;;4995969;28;20989;-67
2023/09/17 10:04:47;;;;;;;2.63;2.43;;;27.30;99.90;;;;;;4983820;28;20464;-67
2023/09/17 10:07:15;;;;;;;2.53;2.20;;;27.30;99.90;;;;;;4984199;28;20462;-67
2023/09/17 10:09:44;;;;;;;3.20;2.20;;;27.40;99.90;;;;;;4980678;28;20537;-67
2023/09/17 10:12:11;;;;;;;3.43;2.57;;;27.40;99.90;;;;;;4983997;28;20494;-67
2023/09/17 10:14:39;;;;;;;2.40;1.97;;;27.30;99.90;;;;;;4981079;28;20462;-67
2023/09/17 10:17:07;;;;;;;3.30;2.03;;;27.40;99.90;;;;;;4983732;28;20476;-67
2023/09/17 10:19:35;;;;;;;2.77;2.20;;;27.40;99.90;;;;;;4982130;28;20888;-67
2023/09/17 10:22:03;;;;;;;4.03;2.30;;;27.40;99.90;;;;;;4982999;28;20487;-67
2023/09/17 10:24:31;;;;;;;3.30;1.90;;;27.50;99.90;;;;;;4982533;28;20762;-67
2023/09/17 10:27:00;;;;;;;2.47;1.80;;;27.60;99.90;;;;;;4985995;28;20470;-67
2023/09/17 10:29:28;;;;;;;4.77;2.00;;;27.70;99.90;;;;;;4987136;28;20580;-67
2023/09/17 10:31:56;;;;;;;4.57;2.00;;;27.80;99.90;;;;;;4985988;28;20491;-67
2023/09/17 10:34:25;;;;;;;4.40;2.53;;;27.80;99.90;;;;;;4987410;28;20473;-67
2023/09/17 10:36:54;;;;;;;2.80;2.03;;;27.80;99.90;;;;;;4985907;28;20463;-67
2023/09/17 10:39:23;;;;;;;2.60;2.10;;;27.80;99.90;;;;;;4988278;28;20462;-67
2023/09/17 10:41:52;;;;;;;2.20;2.00;;;27.90;99.90;;;;;;4998332;28;20475;-67
2023/09/17 10:44:23;;;;;;;2.37;2.17;;;28.00;99.90;;;;;;5001264;28;20465;-67
2023/09/17 10:46:50;;;;;;;2.90;2.53;;;28.00;99.90;;;;;;4988089;28;20462;-67
2023/09/17 10:49:18;;;;;;;2.70;2.00;;;28.10;99.90;;;;;;4988190;28;20482;-67
2023/09/17 10:51:46;;;;;;;5.00;2.00;;;28.10;99.90;;;;;;4984989;28;20539;-67
2023/09/17 10:54:13;;;;;;;3.83;2.60;;;28.30;99.90;;;;;;4977301;28;20469;-67
2023/09/17 10:56:42;;;;;;;2.17;1.90;;;28.30;99.90;;;;;;4985539;28;20458;-67
2023/09/17 10:59:13;;;;;;;1.60;1.50;;;28.30;99.90;;;;;;4985788;28;20450;-67
2023/09/17 11:01:43;;;;;;;2.63;2.17;;;28.30;99.90;;;;;;4984565;28;20482;-67
2023/09/17 11:04:15;;;;;;;1.83;1.73;;;28.30;99.90;;;;;;4983933;28;20463;-65
2023/09/17 11:06:45;;;;;;;2.03;1.83;;;28.30;99.90;;;;;;4981914;28;20962;-65
2023/09/17 11:09:12;;;;;;;2.10;1.90;;;28.30;99.90;;;;;;4979357;28;20493;-67
2023/09/17 11:11:40;;;;;;;2.37;2.00;;;28.30;99.90;;;;;;4982686;28;20513;-65
2023/09/17 11:14:08;;;;;;;3.23;1.90;;;28.30;99.90;;;;;;4983956;28;20466;-65
2023/09/17 11:16:36;;;;;;;1.90;1.80;;;28.40;99.90;;;;;;4983364;28;20470;-65
2023/09/17 11:19:11;;;;;;;1.70;1.57;;;28.60;99.90;;;;;;4983551;28;20463;-65
2023/09/17 11:21:38;;;;;;;4.83;1.60;;;28.70;99.90;;;;;;4982916;28;21077;-65
2023/09/17 11:24:08;;;;;;;2.33;2.00;;;28.70;99.90;;;;;;4983141;28;20459;-65
2023/09/17 11:26:37;;;;;;;3.53;2.33;;;28.70;99.90;;;;;;4983480;28;20533;-67
2023/09/17 11:29:06;;;;;;;2.73;1.90;;;28.80;99.90;;;;;;4983569;28;20842;-65
2023/09/17 11:31:36;;;;;;;2.13;1.93;;;28.90;99.90;;;;;;4983574;28;20497;-65
2023/09/17 11:34:06;;;;;;;1.67;1.33;;;29.00;99.90;;;;;;4983160;28;20518;-65
2023/09/17 11:36:34;;;;;;;7.10;2.13;;;29.00;99.90;;;;;;4983907;28;20465;-65
2023/09/17 11:39:04;;;;;;;2.33;1.80;;;29.00;99.90;;;;;;4983367;28;20562;-65
2023/09/17 11:41:35;;;;;;;2.10;1.80;;;29.10;99.90;;;;;;4983868;28;21002;-65
2023/09/17 11:44:04;;;;;;;2.00;1.80;;;29.20;99.90;;;;;;4983173;28;21390;-65
2023/09/17 11:46:33;;;;;;;2.00;1.80;;;29.20;99.90;;;;;;4984471;28;20490;-65
2023/09/17 11:49:01;;;;;;;1.87;1.63;;;29.20;99.90;;;;;;4983286;28;20542;-65
2023/09/17 11:51:29;;;;;;;1.97;1.80;;;29.30;99.90;;;;;;4984820;28;20486;-65
2023/09/17 11:54:00;;;;;;;5.40;2.30;;;29.30;99.90;;;;;;4982370;28;20467;-65
2023/09/17 11:56:29;;;;;;;1.73;1.63;;;29.30;99.90;;;;;;4984770;28;20484;-65
2023/09/17 11:59:04;;;;;;;1.90;1.53;;;29.40;99.90;;;;;;4992666;28;20463;-65
2023/09/17 12:01:36;;;;;;;2.63;2.03;;;29.30;99.90;;;;;;4984179;28;20486;-65
2023/09/17 12:04:05;;;;;;;3.00;1.83;;;29.30;99.90;;;;;;4983111;28;20841;-65
2023/09/17 12:06:37;;;;;;;2.60;1.80;;;29.20;99.90;;;;;;4984119;28;20473;-65
2023/09/17 12:09:11;;;;;;;2.53;1.80;;;29.10;99.90;;;;;;4983648;28;20487;-65
2023/09/17 12:11:38;;;;;;;2.07;1.60;;;29.10;99.90;;;;;;4983334;28;21081;-65
2023/09/17 12:14:06;;;;;;;1.87;1.60;;;29.10;99.90;;;;;;4983474;28;20859;-65
2023/09/17 12:16:33;;;;;;;3.13;1.80;;;29.10;99.90;;;;;;4984309;28;20458;-65
2023/09/17 12:19:00;;;;;;;2.67;2.20;;;29.10;99.90;;;;;;4983572;28;20466;-65
2023/09/17 12:21:30;;;;;;;2.23;2.03;;;29.10;99.90;;;;;;4984764;28;21028;-65
2023/09/17 12:23:57;;;;;;;1.93;1.80;;;29.10;99.90;;;;;;4992289;28;21031;-65
2023/09/17 12:26:27;;;;;;;1.63;1.37;;;29.00;99.90;;;;;;4984682;28;20556;-67
2023/09/17 12:28:54;;;;;;;2.23;1.57;;;29.10;99.90;;;;;;4984892;28;20595;-65
2023/09/17 12:31:21;;;;;;;3.20;2.17;;;29.10;99.90;;;;;;4984511;28;20873;-64
2023/09/17 12:33:48;;;;;;;2.30;1.90;;;29.10;99.90;;;;;;4981984;28;20470;-65
2023/09/17 12:36:14;;;;;;;2.60;1.87;;;29.20;99.90;;;;;;4984723;28;20546;-65
2023/09/17 12:38:41;;;;;;;6.13;1.93;;;29.30;99.90;;;;;;4983403;28;20462;-65
2023/09/17 12:41:11;;;;;;;2.43;2.23;;;29.30;99.90;;;;;;4984108;28;20493;-65
2023/09/17 12:43:39;;;;;;;3.63;1.83;;;29.40;99.90;;;;;;4983292;28;20481;-65
2023/09/17 12:46:06;;;;;;;2.70;2.10;;;29.40;99.90;;;;;;4983850;28;20466;-65
2023/09/17 12:48:34;;;;;;;2.00;1.83;;;29.40;99.90;;;;;;4983857;28;20473;-65
2023/09/17 12:51:01;;;;;;;2.00;1.80;;;29.40;99.90;;;;;;4983751;28;20491;-65
2023/09/17 12:53:28;;;;;;;2.40;2.13;;;29.50;99.90;;;;;;4984330;28;20470;-67
2023/09/17 12:55:58;;;;;;;3.30;2.13;;;29.50;99.90;;;;;;4982784;28;20468;-65
2023/09/17 12:58:25;;;;;;;2.20;2.03;;;29.60;99.90;;;;;;4984938;28;20501;-65
2023/09/17 13:00:53;;;;;;;2.60;2.10;;;29.60;99.90;;;;;;4982842;28;20481;-65
2023/09/17 13:03:20;;;;;;;3.07;2.30;;;29.60;99.90;;;;;;4984104;28;20471;-65
2023/09/17 13:05:55;;;;;;;4.70;2.00;;;29.60;99.90;;;;;;4982973;28;20949;-65
2023/09/17 13:08:24;;;;;;;2.17;1.70;;;29.60;99.90;;;;;;4984818;28;20462;-65
2023/09/17 13:10:50;;;;;;;6.20;2.03;;;29.60;99.90;;;;;;4982847;28;20576;-65
2023/09/17 13:13:17;;;;;;;2.73;2.17;;;29.60;99.90;;;;;;4984320;28;20899;-65
2023/09/17 13:15:44;;;;;;;3.07;1.70;;;29.70;99.90;;;;;;4983285;28;20472;-65
2023/09/17 13:18:12;;;;;;;2.73;2.23;;;29.80;99.90;;;;;;4978237;28;20959;-65
2023/09/17 13:20:39;;;;;;;1.70;1.60;;;29.80;99.90;;;;;;4984093;28;20478;-65
2023/09/17 13:23:06;;;;;;;3.03;2.03;;;29.90;99.90;;;;;;4983535;28;20617;-65
2023/09/17 13:25:34;;;;;;;4.33;2.33;;;29.80;99.90;;;;;;4984824;28;20466;-65
2023/09/17 13:28:11;;;;;;;2.50;1.80;;;29.80;99.90;;;;;;5000940;28;20494;-65
2023/09/17 13:30:38;;;;;;;2.30;1.93;;;29.80;99.90;;;;;;4988832;28;20500;-65
2023/09/17 13:33:06;;;;;;;1.67;1.50;;;29.80;99.90;;;;;;4983607;28;20474;-65
2023/09/17 13:35:34;;;;;;;4.40;2.03;;;29.80;99.90;;;;;;4985204;28;20458;-65
2023/09/17 13:38:01;;;;;;;5.07;2.30;;;29.80;99.90;;;;;;4985258;28;20470;-65
2023/09/17 13:40:28;;;;;;;2.30;2.07;;;29.80;99.90;;;;;;4985048;28;20461;-64
2023/09/17 13:42:55;;;;;;;3.20;1.80;;;30.00;99.90;;;;;;4982973;28;20454;-65
2023/09/17 13:45:22;;;;;;;2.13;1.77;;;30.20;99.90;;;;;;4985174;28;20568;-65
2023/09/17 13:47:49;;;;;;;2.03;1.80;;;30.20;99.90;;;;;;4983905;28;20466;-65
2023/09/17 13:50:16;;;;;;;2.20;2.00;;;30.10;99.90;;;;;;4984921;28;20497;-65
2023/09/17 13:52:44;;;;;;;2.37;1.90;;;30.00;99.90;;;;;;4983726;28;20589;-67
2023/09/17 13:55:12;;;;;;;2.97;1.80;;;29.80;99.90;;;;;;4978445;28;20463;-67
2023/09/17 13:57:38;;;;;;;2.70;1.90;;;29.60;99.90;;;;;;4984742;28;20469;-65
2023/09/17 14:00:07;;;;;;;4.90;1.87;;;29.30;99.90;;;;;;4984640;28;20451;-66
2023/09/17 14:02:34;;;;;;;1.50;1.40;;;29.10;99.90;;;;;;4988790;28;20521;-65
2023/09/17 14:05:00;;;;;;;2.40;2.20;;;29.10;99.90;;;;;;4987880;28;20552;-65
2023/09/17 14:07:27;;;;;;;3.00;2.07;;;29.00;99.90;;;;;;4989139;28;20840;-65
2023/09/17 14:09:55;;;;;;;1.77;1.67;;;28.80;99.90;;;;;;4987225;28;20982;-65
2023/09/17 14:12:24;;;;;;;4.10;1.97;;;28.90;99.90;;;;;;4986260;28;20482;-65
2023/09/17 14:14:50;;;;;;;4.73;1.77;;;28.90;99.90;;;;;;4991439;28;20466;-65
2023/09/17 14:17:17;;;;;;;2.37;2.10;;;29.00;99.90;;;;;;4986354;28;20969;-65
2023/09/17 14:19:44;;;;;;;2.47;1.83;;;29.10;99.90;;;;;;4985413;28;20463;-65
2023/09/17 14:22:10;;;;;;;2.17;1.70;;;28.90;99.90;;;;;;4991361;28;20485;-65
2023/09/17 14:24:38;;;;;;;2.60;1.93;;;28.70;99.90;;;;;;4986759;28;20463;-65
2023/09/17 14:27:06;;;;;;;2.37;2.17;;;28.50;99.90;;;;;;5006767;28;20454;-67
2023/09/17 14:29:33;;;;;;;2.17;1.97;;;28.40;99.90;;;;;;4993232;28;20490;-67
2023/09/17 14:32:00;;;;;;;3.70;1.87;;;28.40;99.90;;;;;;4993750;28;20482;-67
2023/09/17 14:34:26;;;;;;;4.87;2.40;;;28.50;99.90;;;;;;4993824;28;20497;-67
2023/09/17 14:36:53;;;;;;;3.10;2.13;;;28.40;99.90;;;;;;4994075;28;20478;-67
2023/09/17 14:39:20;;;;;;;2.53;1.90;;;28.30;99.90;;;;;;4993950;28;20470;-67
2023/09/17 14:41:46;;;;;;;2.97;2.00;;;28.30;99.90;;;;;;4993909;28;20489;-67
2023/09/17 14:44:14;;;;;;;2.67;2.43;;;28.30;99.90;;;;;;4993516;28;20466;-67
2023/09/17 14:46:41;;;;;;;1.67;1.57;;;28.40;99.90;;;;;;4994088;28;20463;-67
2023/09/17 14:49:08;;;;;;;1.47;1.37;;;28.30;99.90;;;;;;4993302;28;20465;-67
2023/09/17 14:51:34;;;;;;;2.03;1.83;;;28.30;99.90;;;;;;4993024;28;20866;-67
2023/09/17 14:54:00;;;;;;;1.67;1.50;;;28.40;99.90;;;;;;4991620;28;20989;-67
2023/09/17 14:56:28;;;;;;;2.97;1.93;;;28.40;99.90;;;;;;4993179;28;20473;-67
2023/09/17 14:58:55;;;;;;;2.03;1.83;;;28.50;99.90;;;;;;4992331;28;20211;-67
2023/09/17 15:01:23;;;;;;;1.70;1.53;;;28.50;99.90;;;;;;4992951;28;20562;-67
2023/09/17 15:03:49;;;;;;;2.40;1.77;;;28.60;99.90;;;;;;4992032;28;20466;-66
2023/09/17 15:06:16;;;;;;;4.30;1.60;;;28.60;99.90;;;;;;4993068;28;20466;-68
2023/09/17 15:08:43;;;;;;;1.60;1.50;;;28.70;99.90;;;;;;4993394;28;20463;-68
2023/09/17 15:11:09;;;;;;;2.17;1.60;;;28.70;99.90;;;;;;4992199;28;20489;-67
2023/09/17 15:13:36;;;;;;;2.33;1.60;;;28.70;99.90;;;;;;4992865;28;20458;-68
2023/09/17 15:16:03;;;;;;;3.43;1.77;;;28.60;99.90;;;;;;4992883;28;20845;-67
2023/09/17 15:18:31;;;;;;;1.87;1.70;;;28.60;99.90;;;;;;4993480;28;20470;-68
2023/09/17 15:20:58;;;;;;;1.60;1.50;;;28.60;99.90;;;;;;4993010;28;20829;-67
2023/09/17 15:23:24;;;;;;;1.47;1.30;;;28.60;99.90;;;;;;4992864;28;20879;-67
2023/09/17 15:25:51;;;;;;;2.67;1.70;;;28.60;99.90;;;;;;4993195;28;20463;-68
2023/09/17 15:28:18;;;;;;;1.40;1.30;;;28.50;99.90;;;;;;4993403;28;20465;-67
2023/09/17 15:30:46;;;;;;;1.70;1.60;;;28.40;99.90;;;;;;4993452;28;20486;-68
2023/09/17 15:33:12;;;;;;;1.90;1.80;;;28.30;99.90;;;;;;4985116;28;20524;-67
2023/09/17 15:35:41;;;;;;;2.57;1.73;;;28.20;99.90;;;;;;4986638;28;20845;-68
2023/09/17 15:38:08;;;;;;;2.00;1.80;;;28.20;99.90;;;;;;4973725;28;20456;-67
2023/09/17 15:40:35;;;;;;;1.60;1.33;;;28.30;99.90;;;;;;4969446;28;20486;-67
2023/09/17 15:43:02;;;;;;;2.13;1.80;;;28.40;99.90;;;;;;4969794;28;20463;-67
2023/09/17 15:45:29;;;;;;;2.80;1.83;;;28.40;99.90;;;;;;4970851;28;20455;-67
2023/09/17 15:47:56;;;;;;;1.93;1.63;;;28.40;99.90;;;;;;4970296;28;20471;-66
2023/09/17 15:50:22;;;;;;;2.30;1.63;;;28.40;99.90;;;;;;4970778;28;20944;-67
2023/09/17 15:52:50;;;;;;;3.17;1.93;;;28.40;99.90;;;;;;4969991;28;20470;-66
2023/09/17 15:55:17;;;;;;;4.23;2.00;;;28.20;99.90;;;;;;4970808;28;20479;-67
2023/09/17 15:57:44;;;;;;;2.50;1.53;;;28.20;99.90;;;;;;4970551;28;20478;-67
2023/09/17 16:00:12;;;;;;;1.97;1.80;;;28.10;99.90;;;;;;4970530;28;20463;-67
2023/09/17 16:02:39;;;;;;;2.53;1.47;;;28.10;99.90;;;;;;4970549;28;20459;-67
2023/09/17 16:05:07;;;;;;;1.80;1.60;;;28.10;99.90;;;;;;4970421;28;20493;-67
2023/09/17 16:07:34;;;;;;;2.13;1.93;;;28.10;99.90;;;;;;4970642;28;20467;-67
2023/09/17 16:10:02;;;;;;;2.17;1.60;;;28.10;99.90;;;;;;4970721;28;20493;-67
2023/09/17 16:12:29;;;;;;;2.07;1.50;;;28.00;99.90;;;;;;4970238;28;21012;-66
2023/09/17 16:14:55;;;;;;;3.03;2.00;;;27.90;99.90;;;;;;4970598;28;20471;-67
2023/09/17 16:17:22;;;;;;;2.90;1.93;;;27.90;99.90;;;;;;4970847;28;20466;-66
2023/09/17 16:19:54;;;;;;;1.70;1.60;;;27.80;99.90;;;;;;4971200;28;20467;-67
2023/09/17 16:22:21;;;;;;;1.83;1.50;;;27.70;99.90;;;;;;4978124;28;20491;-67